Time;durP1;ratioP1;P1;durP2;ratioP2;P2;SDS_P1;SDS_P2;PMS_P1;PMS_P2;Temp;Humidity;BMP_temperature;BMP_pressure;BME280_temperature;BME280_humidity;BME280_pressure;Samples;Min_cycle;Max_cycle;Signal;HPM_P1;HPM_P2
2024/03/14 00:00:21;;;;;;;13.10;6.57;;;8.40;99.90;;;;;;5085836;28;20044;-80
2024/03/14 00:02:47;;;;;;;10.95;5.70;;;8.40;99.90;;;;;;5087741;28;20885;-79
2024/03/14 00:05:14;;;;;;;11.60;6.15;;;8.50;99.90;;;;;;5090029;28;20035;-80
2024/03/14 00:07:41;;;;;;;12.50;6.22;;;8.50;99.90;;;;;;5091803;28;20117;-79
2024/03/14 00:10:07;;;;;;;13.05;6.20;;;8.50;99.90;;;;;;5091817;28;20034;-80
2024/03/14 00:12:33;;;;;;;11.68;6.32;;;8.50;99.90;;;;;;5092142;28;20394;-79
2024/03/14 00:14:59;;;;;;;10.98;6.07;;;8.40;99.90;;;;;;5089296;28;20036;-79
2024/03/14 00:17:24;;;;;;;9.48;4.65;;;8.40;99.90;;;;;;5092987;28;20420;-80
2024/03/14 00:19:51;;;;;;;14.48;6.72;;;8.40;99.90;;;;;;5096705;28;20138;-79
2024/03/14 00:22:21;;;;;;;10.85;5.95;;;8.40;99.90;;;;;;5088585;28;20573;-79
2024/03/14 00:24:47;;;;;;;13.85;5.10;;;8.40;99.90;;;;;;5089302;28;20028;-79
2024/03/14 00:27:15;;;;;;;11.20;5.65;;;8.30;99.90;;;;;;5092054;28;20031;-79
2024/03/14 00:29:45;;;;;;;13.77;6.50;;;8.00;99.90;;;;;;5094230;28;20148;-79
2024/03/14 00:32:11;;;;;;;10.35;5.93;;;8.10;99.90;;;;;;5089181;28;20606;-79
2024/03/14 00:34:37;;;;;;;14.48;6.75;;;8.30;99.90;;;;;;5088547;28;20032;-79
2024/03/14 00:37:03;;;;;;;12.50;6.40;;;8.20;99.90;;;;;;5094656;28;20038;-80
2024/03/14 00:39:28;;;;;;;10.90;5.88;;;8.20;99.90;;;;;;5090410;28;20076;-79
2024/03/14 00:41:54;;;;;;;15.65;6.28;;;8.30;99.90;;;;;;5090529;28;20042;-79
2024/03/14 00:44:20;;;;;;;13.50;6.47;;;8.30;99.90;;;;;;5088429;28;20036;-79
2024/03/14 00:46:45;;;;;;;11.70;6.18;;;8.20;99.90;;;;;;5092941;28;20028;-79
2024/03/14 00:49:11;;;;;;;11.32;5.45;;;8.20;99.90;;;;;;5095518;28;20416;-79
2024/03/14 00:51:37;;;;;;;12.70;6.63;;;8.20;99.90;;;;;;5094354;28;20061;-79
2024/03/14 00:54:04;;;;;;;9.05;4.55;;;8.10;99.90;;;;;;5094749;28;20032;-79
2024/03/14 00:56:30;;;;;;;16.88;6.13;;;8.00;99.90;;;;;;5087708;28;20020;-80
2024/03/14 00:58:56;;;;;;;10.50;5.93;;;8.00;99.90;;;;;;5093949;28;20498;-80
2024/03/14 01:01:24;;;;;;;13.18;5.22;;;7.90;99.90;;;;;;5094894;28;20117;-80
2024/03/14 01:03:51;;;;;;;14.75;6.10;;;7.90;99.90;;;;;;5095765;28;20042;-79
2024/03/14 01:06:16;;;;;;;10.48;4.93;;;8.10;99.90;;;;;;5094725;28;20279;-80
2024/03/14 01:08:42;;;;;;;11.68;6.00;;;8.00;99.90;;;;;;5094800;28;20036;-80
2024/03/14 01:11:07;;;;;;;10.10;6.10;;;7.90;99.90;;;;;;5094938;28;20596;-79
2024/03/14 01:13:34;;;;;;;13.07;6.15;;;7.90;99.90;;;;;;5092121;28;21066;-80
2024/03/14 01:16:00;;;;;;;11.18;6.60;;;7.80;99.90;;;;;;5094372;28;20051;-80
2024/03/14 01:18:25;;;;;;;14.23;6.35;;;7.80;99.90;;;;;;5094407;28;20640;-79
2024/03/14 01:20:51;;;;;;;12.38;6.55;;;7.90;99.90;;;;;;5093243;28;20053;-79
2024/03/14 01:23:17;;;;;;;10.95;4.30;;;7.90;99.90;;;;;;5093638;28;20118;-80
2024/03/14 01:25:44;;;;;;;11.70;5.97;;;7.80;99.90;;;;;;5091450;28;20118;-79
2024/03/14 01:28:10;;;;;;;10.43;5.57;;;7.70;99.90;;;;;;5095127;28;20027;-80
2024/03/14 01:30:36;;;;;;;11.13;5.70;;;8.00;99.90;;;;;;5096101;28;20032;-79
2024/03/14 01:33:02;;;;;;;9.13;5.18;;;8.20;99.90;;;;;;5093612;28;20032;-80
2024/03/14 01:35:29;;;;;;;15.32;6.35;;;8.40;99.90;;;;;;5094205;28;20042;-77
2024/03/14 01:37:55;;;;;;;13.90;5.43;;;8.10;99.90;;;;;;5095866;28;20024;-78
2024/03/14 01:40:21;;;;;;;11.05;5.93;;;8.20;99.90;;;;;;5093560;28;20039;-77
2024/03/14 01:42:54;;;;;;;10.25;5.22;;;8.20;99.90;;;;;;5093358;28;20608;-78
2024/03/14 01:45:21;;;;;;;11.00;6.35;;;8.20;99.90;;;;;;5092928;28;20558;-78
2024/03/14 01:47:48;;;;;;;12.93;5.80;;;8.10;99.90;;;;;;5094595;28;20088;-79
2024/03/14 01:50:14;;;;;;;10.55;5.82;;;7.90;99.90;;;;;;5093669;28;20032;-79
2024/03/14 01:52:40;;;;;;;10.13;5.45;;;7.80;99.90;;;;;;5094217;28;20035;-79
2024/03/14 01:55:09;;;;;;;12.27;6.43;;;7.70;99.90;;;;;;5094576;28;20085;-79
2024/03/14 01:57:35;;;;;;;10.60;5.13;;;7.80;99.90;;;;;;5093398;28;20063;-80
2024/03/14 02:00:04;;;;;;;11.75;5.45;;;8.00;99.90;;;;;;5093588;28;20075;-79
2024/03/14 02:02:32;;;;;;;10.68;5.22;;;7.90;99.90;;;;;;5093881;28;20055;-79
2024/03/14 02:05:23;;;;;;;10.80;5.13;;;7.90;99.90;;;;;;5092765;28;20439;-80
2024/03/14 02:07:49;;;;;;;8.82;4.75;;;7.70;99.90;;;;;;5094221;28;25294;-80
2024/03/14 02:10:18;;;;;;;11.85;6.50;;;7.60;99.90;;;;;;5092507;28;20077;-80
2024/03/14 02:12:43;;;;;;;9.90;5.15;;;7.40;99.90;;;;;;5092486;28;20036;-80
2024/03/14 02:15:12;;;;;;;11.90;5.97;;;7.40;99.90;;;;;;5092072;28;20076;-79
2024/03/14 02:17:39;;;;;;;9.52;5.65;;;7.40;99.90;;;;;;5091938;28;20047;-79
2024/03/14 02:20:06;;;;;;;13.88;5.78;;;7.30;99.90;;;;;;5092749;28;20039;-80
2024/03/14 02:22:31;;;;;;;11.50;5.00;;;7.50;99.90;;;;;;5094704;28;20024;-79
2024/03/14 02:24:57;;;;;;;10.02;5.45;;;7.60;99.90;;;;;;5092482;28;20042;-79
2024/03/14 02:27:23;;;;;;;11.30;5.63;;;7.60;99.90;;;;;;5093920;28;20169;-79
2024/03/14 02:29:49;;;;;;;10.02;6.03;;;7.60;99.90;;;;;;5091994;28;20387;-80
2024/03/14 02:32:14;;;;;;;13.18;6.18;;;7.50;99.90;;;;;;5094932;28;20392;-79
2024/03/14 02:34:40;;;;;;;11.98;5.57;;;7.50;99.90;;;;;;5093713;28;20040;-80
2024/03/14 02:37:06;;;;;;;10.57;4.80;;;7.30;99.90;;;;;;5092427;28;20039;-80
2024/03/14 02:39:32;;;;;;;12.30;4.68;;;7.30;99.90;;;;;;5094630;28;20040;-80
2024/03/14 02:42:01;;;;;;;10.93;5.88;;;7.30;99.90;;;;;;5093164;28;20027;-80
2024/03/14 02:44:26;;;;;;;11.73;5.13;;;7.40;99.90;;;;;;5090959;28;20020;-79
2024/03/14 02:46:52;;;;;;;10.20;5.78;;;7.40;99.90;;;;;;5091187;28;20663;-77
2024/03/14 02:49:23;;;;;;;11.00;5.90;;;7.30;99.90;;;;;;5092793;28;20100;-78
2024/03/14 02:51:48;;;;;;;9.05;5.63;;;7.20;99.90;;;;;;5094395;28;20035;-80
2024/03/14 02:54:17;;;;;;;12.85;5.43;;;7.10;99.90;;;;;;5093278;28;20038;-80
2024/03/14 02:56:47;;;;;;;10.20;4.75;;;7.10;99.90;;;;;;5092559;28;20035;-78
2024/03/14 02:59:16;;;;;;;10.20;5.03;;;7.30;99.90;;;;;;5089804;28;20024;-78
2024/03/14 03:01:42;;;;;;;10.63;5.22;;;7.50;99.90;;;;;;5092850;28;20565;-78
2024/03/14 03:04:11;;;;;;;9.85;5.55;;;7.50;99.90;;;;;;5093802;28;20043;-78
2024/03/14 03:06:48;;;;;;;11.13;5.25;;;7.20;99.90;;;;;;5092647;28;20051;-78
2024/03/14 03:09:15;;;;;;;9.38;5.05;;;7.30;99.90;;;;;;5091633;28;20040;-78
2024/03/14 03:11:41;;;;;;;10.68;6.35;;;7.20;99.90;;;;;;5094936;28;20023;-78
2024/03/14 03:14:07;;;;;;;11.63;5.95;;;7.00;99.90;;;;;;5092536;28;20038;-78
2024/03/14 03:16:33;;;;;;;7.80;4.35;;;6.90;99.90;;;;;;5092226;28;20047;-77
2024/03/14 03:18:59;;;;;;;9.55;4.93;;;6.80;99.90;;;;;;5093853;28;20043;-78
2024/03/14 03:21:25;;;;;;;10.73;5.55;;;6.90;99.90;;;;;;5092586;28;20040;-77
2024/03/14 03:23:51;;;;;;;9.70;4.90;;;7.00;99.90;;;;;;5092335;28;20103;-78
2024/03/14 03:26:16;;;;;;;14.57;5.40;;;6.90;99.90;;;;;;5091908;28;20084;-78
2024/03/14 03:28:42;;;;;;;12.95;5.55;;;6.80;99.90;;;;;;5092837;28;20032;-78
2024/03/14 03:31:10;;;;;;;9.60;5.20;;;6.70;99.90;;;;;;5091524;28;20031;-77
2024/03/14 03:33:36;;;;;;;9.35;4.55;;;6.50;99.90;;;;;;5093992;28;20505;-79
2024/03/14 03:36:05;;;;;;;11.32;4.82;;;6.60;99.90;;;;;;5092723;28;20042;-80
2024/03/14 03:38:32;;;;;;;12.02;5.57;;;6.50;99.90;;;;;;5091648;28;20032;-80
2024/03/14 03:40:58;;;;;;;10.30;5.88;;;6.60;99.90;;;;;;5097319;28;20156;-80
2024/03/14 03:43:25;;;;;;;11.10;5.15;;;6.80;99.90;;;;;;5096415;28;20039;-80
2024/03/14 03:45:52;;;;;;;8.82;4.85;;;6.80;99.90;;;;;;5095159;28;20027;-80
2024/03/14 03:48:17;;;;;;;7.93;4.32;;;6.80;99.90;;;;;;5097986;28;20035;-80
2024/03/14 03:50:43;;;;;;;8.18;4.63;;;6.80;99.90;;;;;;5095843;28;20043;-79
2024/03/14 03:53:09;;;;;;;9.13;5.50;;;6.70;99.90;;;;;;5095459;27;20369;-80
2024/03/14 03:55:34;;;;;;;14.30;4.30;;;6.60;99.90;;;;;;5096906;28;20379;-80
2024/03/14 03:58:00;;;;;;;10.43;4.45;;;6.60;99.90;;;;;;5095706;28;20028;-80
2024/03/14 04:00:41;;;;;;;9.85;4.18;;;6.80;99.90;;;;;;5095588;28;20079;-80
2024/03/14 04:03:07;;;;;;;9.48;4.25;;;6.80;99.90;;;;;;5095349;28;20031;-80
2024/03/14 04:05:34;;;;;;;9.23;4.63;;;6.60;99.90;;;;;;5089364;28;21775;-79
2024/03/14 04:08:00;;;;;;;9.95;4.18;;;6.70;99.90;;;;;;5091384;28;20039;-78
2024/03/14 04:10:26;;;;;;;8.98;4.18;;;6.80;99.90;;;;;;5091293;28;20096;-78
2024/03/14 04:12:53;;;;;;;6.93;3.50;;;7.00;99.90;;;;;;5092536;27;20580;-79
2024/03/14 04:15:22;;;;;;;7.28;3.65;;;6.90;99.90;;;;;;5091280;28;20027;-79
2024/03/14 04:17:48;;;;;;;8.50;4.35;;;6.70;99.90;;;;;;5087499;28;20051;-78
2024/03/14 04:20:15;;;;;;;7.60;4.07;;;6.80;99.90;;;;;;5088256;28;20031;-78
2024/03/14 04:22:41;;;;;;;11.48;4.80;;;6.80;99.90;;;;;;5089027;28;20047;-78
2024/03/14 04:25:11;;;;;;;6.22;3.58;;;6.40;99.90;;;;;;5091317;28;20028;-78
2024/03/14 04:27:41;;;;;;;6.55;3.63;;;6.30;99.90;;;;;;5090996;28;20059;-80
2024/03/14 04:30:10;;;;;;;9.93;3.83;;;6.40;99.90;;;;;;5092618;28;20494;-80
2024/03/14 04:32:38;;;;;;;7.78;4.05;;;6.50;99.90;;;;;;5089587;28;20026;-80
2024/03/14 04:35:04;;;;;;;6.88;3.75;;;6.80;99.90;;;;;;5082915;28;20830;-80
2024/03/14 04:37:31;;;;;;;6.63;3.55;;;6.90;99.90;;;;;;5088988;28;20086;-80
2024/03/14 04:39:58;;;;;;;6.88;3.22;;;6.80;99.90;;;;;;5086839;28;20047;-80
2024/03/14 04:42:24;;;;;;;13.68;3.50;;;6.90;99.90;;;;;;5090547;28;20058;-80
2024/03/14 04:44:51;;;;;;;9.57;3.60;;;7.10;99.90;;;;;;5088767;28;21081;-80
2024/03/14 04:47:16;;;;;;;6.30;3.15;;;7.30;99.90;;;;;;5087138;28;20038;-80
2024/03/14 04:49:43;;;;;;;9.20;4.00;;;7.10;99.90;;;;;;5089984;28;20027;-80
2024/03/14 04:52:09;;;;;;;6.32;2.97;;;7.10;99.90;;;;;;5086283;28;23412;-80
2024/03/14 04:54:35;;;;;;;9.30;3.63;;;7.00;99.90;;;;;;5088182;28;20039;-80
2024/03/14 04:57:01;;;;;;;5.97;3.28;;;6.80;99.90;;;;;;5088470;28;20050;-79
2024/03/14 04:59:30;;;;;;;9.63;4.07;;;6.80;99.90;;;;;;5089204;28;20031;-78
2024/03/14 05:01:56;;;;;;;7.32;3.45;;;6.80;99.90;;;;;;5090127;28;20539;-78
2024/03/14 05:04:22;;;;;;;5.70;2.90;;;6.90;99.90;;;;;;5087334;28;20032;-78
2024/03/14 05:06:47;;;;;;;6.45;3.38;;;7.10;99.90;;;;;;5087319;28;20088;-78
2024/03/14 05:09:13;;;;;;;5.03;2.50;;;7.00;99.90;;;;;;5088134;28;20024;-79
2024/03/14 05:11:39;;;;;;;4.63;2.40;;;7.20;99.90;;;;;;5088473;28;20028;-78
2024/03/14 05:14:06;;;;;;;6.10;3.17;;;7.20;99.90;;;;;;5088852;27;20029;-79
2024/03/14 05:16:33;;;;;;;7.78;3.55;;;7.10;99.90;;;;;;5088365;28;20063;-78
2024/03/14 05:18:59;;;;;;;6.63;3.13;;;6.70;99.90;;;;;;5086945;28;20032;-78
2024/03/14 05:21:24;;;;;;;7.45;3.53;;;6.50;99.90;;;;;;5088067;28;20400;-78
2024/03/14 05:23:50;;;;;;;7.25;3.42;;;6.40;99.90;;;;;;5089216;28;20028;-79
2024/03/14 05:26:18;;;;;;;7.38;3.45;;;6.40;99.90;;;;;;5086626;28;20513;-78
2024/03/14 05:28:43;;;;;;;9.35;4.82;;;6.30;99.90;;;;;;5086338;28;20058;-79
2024/03/14 05:31:09;;;;;;;8.63;3.80;;;6.60;99.90;;;;;;5088848;28;20126;-79
2024/03/14 05:33:35;;;;;;;6.72;2.88;;;6.60;99.90;;;;;;5088160;28;20046;-78
2024/03/14 05:36:01;;;;;;;6.85;3.47;;;6.30;99.90;;;;;;5085026;28;20032;-79
2024/03/14 05:38:27;;;;;;;6.95;2.97;;;6.20;99.90;;;;;;5088199;28;20079;-79
2024/03/14 05:40:53;;;;;;;6.38;3.05;;;6.00;99.90;;;;;;5087228;28;20627;-78
2024/03/14 05:43:21;;;;;;;6.65;2.83;;;6.00;99.90;;;;;;5087816;28;20456;-79
2024/03/14 05:45:47;;;;;;;9.00;3.03;;;5.80;99.90;;;;;;5088714;28;20564;-79
2024/03/14 05:48:13;;;;;;;4.50;2.50;;;6.20;99.90;;;;;;5085259;28;20047;-78
2024/03/14 05:50:38;;;;;;;4.95;2.45;;;6.30;99.90;;;;;;5086236;28;20039;-79
2024/03/14 05:53:05;;;;;;;5.85;2.72;;;6.40;99.90;;;;;;5088545;28;20447;-79
2024/03/14 05:55:30;;;;;;;9.02;2.92;;;6.40;99.90;;;;;;5087093;28;20537;-79
2024/03/14 05:57:56;;;;;;;6.88;2.97;;;6.50;99.90;;;;;;5086815;28;20027;-79
2024/03/14 06:00:22;;;;;;;5.60;2.97;;;6.50;99.90;;;;;;5087838;28;20051;-79
2024/03/14 06:02:48;;;;;;;5.50;2.95;;;6.50;99.90;;;;;;5088797;28;20534;-78
2024/03/14 06:05:15;;;;;;;6.18;3.30;;;6.60;99.90;;;;;;5088138;28;20035;-78
2024/03/14 06:07:41;;;;;;;10.02;4.28;;;6.40;99.90;;;;;;5086541;28;20096;-79
2024/03/14 06:10:07;;;;;;;6.90;3.22;;;6.20;99.90;;;;;;5085436;28;20027;-78
2024/03/14 06:12:33;;;;;;;6.75;2.88;;;6.30;99.90;;;;;;5088148;28;20027;-78
2024/03/14 06:14:59;;;;;;;5.53;2.42;;;6.50;99.90;;;;;;5089846;28;20031;-82
2024/03/14 06:17:27;;;;;;;7.68;2.67;;;6.60;99.90;;;;;;5090032;28;20405;-82
2024/03/14 06:19:53;;;;;;;4.05;2.08;;;6.60;99.90;;;;;;5088826;28;20156;-78
2024/03/14 06:22:19;;;;;;;5.00;2.38;;;6.50;99.90;;;;;;5085514;28;20028;-81
2024/03/14 06:24:44;;;;;;;4.05;2.30;;;6.60;99.90;;;;;;5087041;28;20455;-81
2024/03/14 06:27:13;;;;;;;5.53;2.40;;;6.70;99.90;;;;;;5087452;28;20023;-80
2024/03/14 06:29:39;;;;;;;6.25;2.13;;;6.80;99.90;;;;;;5087428;28;20039;-80
2024/03/14 06:32:04;;;;;;;5.05;2.63;;;6.60;99.90;;;;;;5083823;28;20043;-81
2024/03/14 06:34:33;;;;;;;5.32;2.78;;;6.40;99.90;;;;;;5087343;28;20381;-81
2024/03/14 06:36:59;;;;;;;6.80;2.65;;;6.50;99.90;;;;;;5096420;28;20543;-79
2024/03/14 06:39:28;;;;;;;9.65;3.40;;;6.60;99.90;;;;;;5088788;28;20043;-82
2024/03/14 06:41:54;;;;;;;4.65;2.25;;;6.70;99.90;;;;;;5088611;28;20054;-81
2024/03/14 06:44:21;;;;;;;5.00;2.20;;;6.90;99.90;;;;;;5088221;28;20027;-81
2024/03/14 06:46:48;;;;;;;4.60;2.13;;;6.90;99.90;;;;;;5086755;28;20031;-81
2024/03/14 06:49:14;;;;;;;5.20;2.03;;;6.80;99.90;;;;;;5083810;28;20031;-81
2024/03/14 06:51:43;;;;;;;5.30;2.10;;;6.70;99.90;;;;;;5086766;28;20092;-81
2024/03/14 06:54:09;;;;;;;5.88;2.80;;;6.80;99.90;;;;;;5086130;28;20495;-81
2024/03/14 06:56:37;;;;;;;7.57;3.63;;;6.70;99.90;;;;;;5087145;28;20054;-81
2024/03/14 06:59:04;;;;;;;4.30;2.05;;;6.70;99.90;;;;;;5087738;28;20493;-80
2024/03/14 07:01:31;;;;;;;5.22;2.45;;;6.90;99.90;;;;;;5085341;28;20343;-81
2024/03/14 07:04:01;;;;;;;7.28;3.00;;;7.00;99.90;;;;;;5088507;28;20035;-81
2024/03/14 07:06:28;;;;;;;5.55;2.63;;;6.90;99.90;;;;;;5085666;28;20484;-80
2024/03/14 07:08:56;;;;;;;4.85;1.88;;;7.20;99.90;;;;;;5087711;28;20933;-82
2024/03/14 07:11:25;;;;;;;4.40;2.10;;;7.40;99.90;;;;;;5086954;28;20036;-80
2024/03/14 07:13:59;;;;;;;5.88;1.98;;;7.20;99.90;;;;;;5088056;28;20043;-79
2024/03/14 07:16:25;;;;;;;4.55;2.38;;;7.40;99.90;;;;;;5088696;28;20051;-79
2024/03/14 07:18:55;;;;;;;5.80;2.83;;;7.40;99.90;;;;;;5088125;27;20744;-79
2024/03/14 07:21:24;;;;;;;6.05;2.50;;;7.30;99.90;;;;;;5090408;28;20079;-80
2024/03/14 07:23:50;;;;;;;5.53;2.40;;;7.10;99.90;;;;;;5089825;28;21087;-79
2024/03/14 07:26:22;;;;;;;4.72;2.22;;;7.10;99.90;;;;;;5090305;27;20028;-79
2024/03/14 07:28:50;;;;;;;9.35;2.20;;;7.20;99.90;;;;;;5091302;28;20115;-79
2024/03/14 07:31:16;;;;;;;5.95;2.33;;;7.20;99.90;;;;;;5091213;28;20036;-79
2024/03/14 07:33:45;;;;;;;4.90;2.08;;;7.20;99.90;;;;;;5088659;28;23637;-79
2024/03/14 07:36:15;;;;;;;3.20;1.77;;;7.30;99.90;;;;;;5089665;28;20031;-81
2024/03/14 07:38:49;;;;;;;6.38;1.80;;;7.40;99.90;;;;;;5091179;28;20549;-81
2024/03/14 07:41:25;;;;;;;7.45;2.20;;;7.60;99.90;;;;;;5090594;28;20063;-80
2024/03/14 07:43:54;;;;;;;5.00;1.58;;;7.70;99.90;;;;;;5088619;28;20035;-81
2024/03/14 07:46:20;;;;;;;3.13;1.50;;;7.70;99.90;;;;;;5089828;28;20032;-80
2024/03/14 07:48:49;;;;;;;4.90;2.05;;;7.90;99.90;;;;;;5091439;28;20164;-77
2024/03/14 07:51:17;;;;;;;4.18;1.73;;;7.80;99.90;;;;;;5090230;28;20027;-79
2024/03/14 07:53:44;;;;;;;4.30;1.48;;;7.90;99.90;;;;;;5089320;28;20052;-79
2024/03/14 07:56:12;;;;;;;7.28;1.60;;;7.80;99.90;;;;;;5091985;28;21289;-79
2024/03/14 07:58:42;;;;;;;3.50;1.20;;;7.90;99.90;;;;;;5090757;27;20035;-80
2024/03/14 08:01:10;;;;;;;4.68;1.05;;;8.10;99.90;;;;;;5089498;28;20054;-78
2024/03/14 08:03:39;;;;;;;3.22;1.27;;;8.20;99.90;;;;;;5082237;28;20125;-79
2024/03/14 08:06:14;;;;;;;3.47;1.15;;;8.20;99.90;;;;;;5089553;28;20085;-79
2024/03/14 08:08:40;;;;;;;3.03;1.15;;;8.30;99.90;;;;;;5088777;28;20420;-78
2024/03/14 08:11:09;;;;;;;3.15;1.17;;;8.50;99.90;;;;;;5088259;28;20036;-80
2024/03/14 08:13:35;;;;;;;7.07;2.10;;;8.50;99.90;;;;;;5088723;28;20028;-81
2024/03/14 08:16:22;;;;;;;2.45;1.42;;;8.50;99.90;;;;;;5088144;28;20070;-81
2024/03/14 08:18:48;;;;;;;2.97;1.48;;;8.50;99.90;;;;;;5087853;28;20546;-81
2024/03/14 08:21:14;;;;;;;6.57;2.28;;;8.60;99.90;;;;;;5085238;28;20148;-81
2024/03/14 08:23:47;;;;;;;4.63;1.70;;;8.60;99.90;;;;;;5087893;28;20055;-82
2024/03/14 08:26:13;;;;;;;3.15;1.20;;;8.70;99.90;;;;;;5088455;28;20501;-81
2024/03/14 08:28:41;;;;;;;2.35;0.80;;;8.70;99.90;;;;;;5085482;28;20611;-80
2024/03/14 08:31:15;;;;;;;3.05;1.27;;;8.70;99.90;;;;;;5087106;28;20028;-80
2024/03/14 08:33:44;;;;;;;3.80;1.40;;;8.70;99.90;;;;;;5088471;28;20050;-79
2024/03/14 08:36:09;;;;;;;3.75;1.15;;;8.80;99.90;;;;;;5091144;28;21004;-79
2024/03/14 08:38:35;;;;;;;3.67;1.42;;;8.80;99.90;;;;;;5086400;28;20031;-79
2024/03/14 08:41:02;;;;;;;1.85;0.90;;;9.00;99.90;;;;;;5088346;28;20048;-79
2024/03/14 08:43:28;;;;;;;3.50;1.13;;;9.00;99.90;;;;;;5088716;28;20020;-81
2024/03/14 08:45:55;;;;;;;2.53;1.33;;;9.00;99.90;;;;;;5089624;28;20062;-80
2024/03/14 08:48:21;;;;;;;4.30;1.17;;;9.10;99.90;;;;;;5087174;28;20104;-79
2024/03/14 08:50:47;;;;;;;2.35;1.10;;;9.10;99.90;;;;;;5089239;28;20457;-79
2024/03/14 08:53:13;;;;;;;4.28;1.48;;;9.20;99.90;;;;;;5085903;28;20464;-79
2024/03/14 08:55:57;;;;;;;2.92;0.90;;;9.30;99.90;;;;;;5087063;28;20032;-79
2024/03/14 08:58:26;;;;;;;2.63;1.13;;;9.40;99.90;;;;;;5086948;28;20055;-79
2024/03/14 09:00:53;;;;;;;2.17;1.00;;;9.40;99.90;;;;;;5085558;28;20048;-79
2024/03/14 09:03:18;;;;;;;1.63;0.80;;;9.50;99.90;;;;;;5087552;28;20107;-79
2024/03/14 09:05:45;;;;;;;2.05;0.98;;;9.60;99.90;;;;;;5086680;28;20084;-79
2024/03/14 09:08:18;;;;;;;2.05;0.90;;;9.70;99.90;;;;;;5086317;28;20404;-79
2024/03/14 09:10:45;;;;;;;2.70;1.13;;;9.90;99.90;;;;;;5087838;28;20292;-79
2024/03/14 09:13:11;;;;;;;2.08;0.90;;;10.00;99.90;;;;;;5087688;28;20285;-79
2024/03/14 09:15:36;;;;;;;2.58;1.00;;;10.00;99.70;;;;;;5089992;28;20100;-79
2024/03/14 09:18:03;;;;;;;2.80;1.05;;;10.10;99.90;;;;;;5087248;28;20113;-79
2024/03/14 09:20:28;;;;;;;2.80;1.00;;;10.20;99.40;;;;;;5087067;28;20646;-79
2024/03/14 09:22:55;;;;;;;2.30;1.08;;;10.30;99.90;;;;;;5088083;28;20028;-79
2024/03/14 09:25:26;;;;;;;1.52;0.80;;;10.30;99.90;;;;;;5086727;28;20069;-79
2024/03/14 09:27:52;;;;;;;2.28;0.95;;;10.40;99.90;;;;;;5086141;28;20482;-79
2024/03/14 09:30:18;;;;;;;1.65;0.70;;;10.30;99.00;;;;;;5087837;28;20031;-79
2024/03/14 09:32:45;;;;;;;5.13;0.90;;;10.50;99.30;;;;;;5087555;28;20666;-79
2024/03/14 09:35:13;;;;;;;2.38;0.82;;;10.50;98.70;;;;;;5088193;28;20404;-78
2024/03/14 09:37:39;;;;;;;2.92;0.60;;;10.70;99.40;;;;;;5084372;28;20037;-79
2024/03/14 09:40:13;;;;;;;3.63;1.05;;;10.80;99.00;;;;;;5087938;28;20111;-79
2024/03/14 09:42:39;;;;;;;2.08;0.80;;;11.30;98.70;;;;;;5087144;28;20389;-79
2024/03/14 09:45:12;;;;;;;1.27;0.57;;;11.10;97.80;;;;;;5086424;28;20043;-78
2024/03/14 09:47:38;;;;;;;1.73;0.80;;;11.00;98.20;;;;;;5084964;28;20050;-78
2024/03/14 09:50:10;;;;;;;2.65;1.02;;;11.40;98.10;;;;;;5087192;28;20063;-79
2024/03/14 09:52:36;;;;;;;1.38;0.70;;;11.50;97.60;;;;;;5086589;28;20093;-79
2024/03/14 09:55:03;;;;;;;2.10;0.77;;;11.60;97.60;;;;;;5086313;28;20417;-79
2024/03/14 09:57:31;;;;;;;2.53;1.05;;;11.70;97.90;;;;;;5085527;27;20024;-80
2024/03/14 09:59:57;;;;;;;2.63;1.35;;;11.60;97.40;;;;;;5085944;28;20059;-81
2024/03/14 10:02:26;;;;;;;2.50;0.98;;;11.60;97.40;;;;;;5086596;28;20035;-80
2024/03/14 10:04:55;;;;;;;1.13;0.60;;;11.70;97.40;;;;;;5087024;28;20019;-80
2024/03/14 10:07:21;;;;;;;2.50;0.50;;;11.80;97.10;;;;;;5087407;28;20110;-81
2024/03/14 10:09:47;;;;;;;1.33;0.60;;;11.90;97.30;;;;;;5084280;28;20035;-79
2024/03/14 10:12:14;;;;;;;2.05;0.93;;;12.10;97.80;;;;;;5085541;28;20035;-79
2024/03/14 10:14:41;;;;;;;5.05;0.63;;;12.30;97.50;;;;;;5085660;28;20036;-78
2024/03/14 10:17:10;;;;;;;2.95;0.90;;;12.20;95.70;;;;;;5086669;28;20170;-80
2024/03/14 10:19:37;;;;;;;4.25;0.98;;;12.20;96.50;;;;;;5086549;28;20031;-78
2024/03/14 10:22:05;;;;;;;1.55;0.63;;;12.30;96.20;;;;;;5086076;28;20035;-79
2024/03/14 10:24:31;;;;;;;2.13;0.52;;;12.40;96.60;;;;;;5085927;28;20074;-79
2024/03/14 10:26:58;;;;;;;2.00;0.70;;;12.40;96.70;;;;;;5085582;28;20482;-78
2024/03/14 10:29:29;;;;;;;0.80;0.40;;;12.60;96.90;;;;;;5088589;28;20051;-79
2024/03/14 10:31:56;;;;;;;2.90;0.65;;;12.70;95.80;;;;;;5087980;28;20390;-79
2024/03/14 10:34:23;;;;;;;8.05;2.97;;;12.60;96.30;;;;;;5084544;28;20130;-78
2024/03/14 10:36:54;;;;;;;3.85;1.95;;;12.70;96.20;;;;;;5086623;28;20039;-79
2024/03/14 10:39:25;;;;;;;2.72;1.38;;;12.80;96.40;;;;;;5085970;28;20036;-79
2024/03/14 10:41:51;;;;;;;1.85;0.90;;;12.80;96.20;;;;;;5087168;28;20105;-78
2024/03/14 10:44:21;;;;;;;6.57;4.57;;;12.80;95.80;;;;;;5085321;28;20704;-79
2024/03/14 10:46:50;;;;;;;2.72;1.58;;;12.90;95.90;;;;;;5086928;28;20043;-78
2024/03/14 10:49:19;;;;;;;11.52;6.38;;;13.00;95.90;;;;;;5084971;28;20048;-78
2024/03/14 10:51:49;;;;;;;15.25;7.90;;;13.10;95.80;;;;;;5086658;28;20068;-78
2024/03/14 10:54:19;;;;;;;5.47;3.35;;;13.10;95.30;;;;;;5087286;28;20039;-79
2024/03/14 10:56:46;;;;;;;3.10;1.58;;;13.20;95.60;;;;;;5087555;28;20742;-78
2024/03/14 10:59:14;;;;;;;2.50;1.23;;;13.50;96.00;;;;;;5085533;28;20083;-79
2024/03/14 11:01:42;;;;;;;3.22;1.30;;;13.40;95.40;;;;;;5088281;28;20043;-78
2024/03/14 11:04:11;;;;;;;3.42;2.22;;;13.70;95.30;;;;;;5085667;28;20062;-79
2024/03/14 11:06:38;;;;;;;2.65;1.35;;;13.90;94.80;;;;;;5087464;28;20123;-79
2024/03/14 11:09:10;;;;;;;1.73;1.10;;;14.10;95.00;;;;;;5084736;28;20044;-78
2024/03/14 11:11:41;;;;;;;2.10;1.00;;;14.20;95.10;;;;;;5088021;28;20027;-79
2024/03/14 11:14:11;;;;;;;2.58;0.88;;;14.00;94.50;;;;;;5086772;28;20038;-79
2024/03/14 11:16:40;;;;;;;2.42;1.00;;;14.20;94.70;;;;;;5086790;28;20135;-78
2024/03/14 11:19:07;;;;;;;8.05;0.70;;;14.20;94.50;;;;;;5087456;28;20032;-78
2024/03/14 11:21:34;;;;;;;3.38;1.30;;;14.10;94.50;;;;;;5087687;28;20517;-78
2024/03/14 11:24:03;;;;;;;2.63;1.40;;;14.10;94.90;;;;;;5084475;28;20066;-78
2024/03/14 11:26:34;;;;;;;2.88;1.15;;;14.10;94.90;;;;;;5085993;28;20385;-80
2024/03/14 11:29:03;;;;;;;1.77;0.70;;;14.10;94.30;;;;;;5086747;28;20062;-81
2024/03/14 11:31:39;;;;;;;2.10;0.73;;;14.10;94.90;;;;;;5085749;28;20118;-79
2024/03/14 11:34:05;;;;;;;2.05;0.65;;;14.20;94.60;;;;;;5084425;28;21060;-79
2024/03/14 11:36:33;;;;;;;2.03;1.02;;;14.30;94.80;;;;;;5087301;28;20042;-80
2024/03/14 11:39:20;;;;;;;1.52;0.82;;;14.20;94.70;;;;;;5086660;28;20425;-78
2024/03/14 11:41:47;;;;;;;1.58;0.60;;;14.10;94.10;;;;;;5089897;28;20050;-78
2024/03/14 11:44:17;;;;;;;2.53;0.82;;;14.40;94.10;;;;;;5089868;28;20668;-79
2024/03/14 11:46:47;;;;;;;1.70;0.60;;;14.60;93.70;;;;;;5088571;28;20084;-79
2024/03/14 11:49:21;;;;;;;2.63;0.63;;;14.50;94.00;;;;;;5090810;28;20027;-78
2024/03/14 11:51:49;;;;;;;1.20;0.60;;;14.60;94.20;;;;;;5088804;28;20540;-79
2024/03/14 11:54:20;;;;;;;1.67;0.50;;;14.70;93.50;;;;;;5089126;28;20159;-78
2024/03/14 11:56:47;;;;;;;0.82;0.65;;;14.80;93.90;;;;;;5087999;28;20038;-79
2024/03/14 11:59:13;;;;;;;0.95;0.45;;;14.80;93.70;;;;;;5090730;28;20027;-80
2024/03/14 12:01:39;;;;;;;1.40;0.68;;;14.80;94.30;;;;;;5088341;28;20047;-79
2024/03/14 12:04:10;;;;;;;0.75;0.30;;;14.90;93.10;;;;;;5090682;28;20039;-77
2024/03/14 12:06:37;;;;;;;3.67;0.47;;;14.70;93.40;;;;;;5094087;28;20540;-78
2024/03/14 12:09:06;;;;;;;0.88;0.47;;;14.70;93.80;;;;;;5093168;28;20027;-79
2024/03/14 12:11:33;;;;;;;1.35;0.38;;;14.80;93.80;;;;;;5087748;28;20024;-82
2024/03/14 12:13:59;;;;;;;17.08;0.85;;;14.80;93.40;;;;;;5090131;28;20489;-79
2024/03/14 12:16:25;;;;;;;5.25;0.70;;;14.80;93.60;;;;;;5088898;28;20075;-79
2024/03/14 12:18:52;;;;;;;2.25;0.60;;;14.80;93.10;;;;;;5088592;28;20139;-81
2024/03/14 12:21:19;;;;;;;2.75;0.80;;;14.90;93.80;;;;;;5088488;28;21082;-80
2024/03/14 12:23:55;;;;;;;1.27;0.50;;;15.00;94.50;;;;;;5089123;28;20031;-80
2024/03/14 12:26:21;;;;;;;41.97;20.08;;;15.10;93.40;;;;;;5088535;28;20063;-82
2024/03/14 12:28:48;;;;;;;10.98;4.97;;;15.20;93.30;;;;;;5088199;28;20596;-83
2024/03/14 12:31:14;;;;;;;3.83;1.50;;;15.20;93.00;;;;;;5092504;28;20058;-82
2024/03/14 12:33:44;;;;;;;2.20;1.10;;;15.10;92.80;;;;;;5090697;28;20036;-81
2024/03/14 12:36:16;;;;;;;6.88;2.80;;;15.00;93.10;;;;;;5087815;28;20462;-84
2024/03/14 12:38:48;;;;;;;134.00;55.15;;;15.10;92.70;;;;;;5090924;28;20828;-82
2024/03/14 12:41:14;;;;;;;48.28;23.25;;;15.40;93.00;;;;;;5090045;28;20936;-80
2024/03/14 12:43:40;;;;;;;11.43;5.25;;;15.60;93.30;;;;;;5088410;28;20042;-84
2024/03/14 12:46:07;;;;;;;4.65;1.58;;;15.70;93.20;;;;;;5091076;28;20030;-81
2024/03/14 12:48:34;;;;;;;1.90;0.70;;;15.80;93.50;;;;;;5088349;28;20040;-81
2024/03/14 12:51:12;;;;;;;10.02;5.15;;;15.70;92.70;;;;;;5088631;28;20031;-81